Terminal Aerodrome Forecast
Issued by NWS

Home | Current Version | Previous Version | Text Only | Print | Product List | Glossary On
Versions: 1 2 3 4 5 6 7 8 9 10 11 12 13 14 15 16 17
000
FTUS42 KTAE 030500
TAFABY
TAF
KABY 030529Z 0306/0406 21003KT 6SM BR OVC060
      TEMPO 0306/0310 1/2SM FG OVC003
     FM031000 00000KT 1/2SM FG OVC003
     FM031600 14006KT P6SM OVC025
     FM032100 19009KT P6SM SCT025 BKN050
     FM040300 18005KT 4SM BR OVC025=

USA.gov is the U.S. government's official web portal to all federal, state and local government web resources and services.